createdAt,value
2023-01-31T00:00:52.471Z,3.40
2023-01-31T00:02:54.304Z,3.50
2023-01-31T00:04:56.001Z,3.50
2023-01-31T00:06:57.795Z,3.50
2023-01-31T00:09:00.904Z,3.60
2023-01-31T00:11:02.726Z,3.60
2023-01-31T00:13:04.486Z,3.60
2023-01-31T00:15:06.511Z,3.60
2023-01-31T00:17:08.371Z,3.50
2023-01-31T00:19:10.153Z,3.40
2023-01-31T00:21:13.109Z,3.40
2023-01-31T00:23:15.266Z,3.40
2023-01-31T00:25:17.433Z,3.40
2023-01-31T00:27:19.777Z,3.40
2023-01-31T00:29:21.513Z,3.30
2023-01-31T00:31:25.372Z,3.10
2023-01-31T00:33:27.113Z,3.10
2023-01-31T00:35:28.909Z,3.10
2023-01-31T00:37:30.737Z,3.10
2023-01-31T00:39:32.534Z,3.10
2023-01-31T00:41:36.902Z,3.10
2023-01-31T00:43:39.493Z,3.00
2023-01-31T00:45:41.643Z,3.00
2023-01-31T00:47:43.367Z,2.90
2023-01-31T00:49:45.123Z,2.90
2023-01-31T00:51:49.597Z,2.80
2023-01-31T00:53:51.448Z,2.70
2023-01-31T00:55:55.583Z,2.70
2023-01-31T00:57:57.362Z,2.70
2023-01-31T00:59:59.147Z,2.60
2023-01-31T01:02:00.912Z,2.70
2023-01-31T01:04:03.021Z,2.60
2023-01-31T01:06:05.739Z,2.60
2023-01-31T01:08:07.531Z,2.70
2023-01-31T01:10:10.081Z,2.70
2023-01-31T01:12:12.197Z,2.70
2023-01-31T01:14:13.953Z,2.70
2023-01-31T01:16:21.553Z,2.70
2023-01-31T01:18:23.370Z,2.80
2023-01-31T01:20:25.183Z,2.80
2023-01-31T01:22:26.880Z,2.80
2023-01-31T01:24:29.079Z,2.80
2023-01-31T01:26:33.015Z,2.80
2023-01-31T01:28:35.439Z,2.80
2023-01-31T01:30:40.307Z,2.80
2023-01-31T01:32:42.065Z,2.90
2023-01-31T01:34:44.216Z,2.90
2023-01-31T01:36:48.026Z,3.00
2023-01-31T01:38:50.097Z,3.00
2023-01-31T01:40:51.844Z,3.00
2023-01-31T01:42:53.547Z,3.00
2023-01-31T01:45:00.258Z,3.00
2023-01-31T01:47:02.296Z,3.00
2023-01-31T01:49:03.916Z,3.10
2023-01-31T01:51:07.766Z,3.10
2023-01-31T01:53:14.996Z,3.10
2023-01-31T01:55:24.835Z,3.00
2023-01-31T01:57:37.500Z,3.00
2023-01-31T01:59:44.994Z,2.90
2023-01-31T02:01:48.867Z,2.90
2023-01-31T02:03:52.958Z,2.90
2023-01-31T02:06:01.571Z,2.80
2023-01-31T02:08:04.035Z,2.80
2023-01-31T02:10:14.318Z,2.80
2023-01-31T02:12:16.292Z,2.80
2023-01-31T02:14:19.247Z,2.70
2023-01-31T02:16:21.195Z,2.80
2023-01-31T02:18:25.345Z,2.70
2023-01-31T02:20:43.934Z,2.70
2023-01-31T02:23:15.040Z,2.70
2023-01-31T02:25:16.890Z,2.70
2023-01-31T02:27:29.480Z,2.70
2023-01-31T02:29:36.987Z,2.90
2023-01-31T02:31:47.621Z,3.00
2023-01-31T02:33:51.273Z,3.00
2023-01-31T02:35:58.679Z,3.00
2023-01-31T02:38:03.371Z,2.90
2023-01-31T02:40:28.590Z,3.00
2023-01-31T02:42:42.622Z,3.00
2023-01-31T02:44:59.637Z,3.00
2023-01-31T02:47:43.723Z,2.90
2023-01-31T02:50:04.249Z,3.00
2023-01-31T02:52:18.910Z,3.00
2023-01-31T02:54:47.171Z,3.10
2023-01-31T02:56:52.256Z,3.10
2023-01-31T02:59:02.687Z,3.10
2023-01-31T03:01:06.498Z,3.10
2023-01-31T03:03:13.500Z,3.10
2023-01-31T03:05:17.465Z,3.00
2023-01-31T03:07:26.929Z,3.00
2023-01-31T03:09:57.742Z,2.90
2023-01-31T03:12:20.837Z,2.90
2023-01-31T03:14:34.482Z,2.90
2023-01-31T03:17:03.389Z,2.90
2023-01-31T03:19:17.419Z,2.90
2023-01-31T03:21:26.286Z,2.90
2023-01-31T03:23:32.927Z,2.90
2023-01-31T03:25:37.243Z,3.00
2023-01-31T03:27:42.543Z,2.90
2023-01-31T03:29:45.070Z,3.00
2023-01-31T03:31:54.778Z,2.90
2023-01-31T03:34:03.223Z,2.90
2023-01-31T03:36:05.117Z,2.80
2023-01-31T03:38:20.691Z,2.90
2023-01-31T03:40:30.480Z,2.90
2023-01-31T03:42:42.126Z,2.90
2023-01-31T03:45:10.836Z,2.90
2023-01-31T03:47:19.038Z,2.90
2023-01-31T03:49:24.279Z,2.90
2023-01-31T03:51:30.224Z,2.90
2023-01-31T03:53:47.381Z,2.90
2023-01-31T03:55:55.125Z,2.90
2023-01-31T03:57:59.824Z,3.00
2023-01-31T04:00:05.616Z,2.90
2023-01-31T04:02:11.874Z,2.90
2023-01-31T04:04:41.715Z,2.90
2023-01-31T04:06:43.572Z,3.00
2023-01-31T04:08:45.467Z,2.90
2023-01-31T04:10:47.357Z,2.90
2023-01-31T04:12:49.066Z,2.90
2023-01-31T04:14:50.813Z,2.90
2023-01-31T04:16:52.545Z,2.90
2023-01-31T04:18:56.364Z,2.90
2023-01-31T04:20:58.063Z,2.90
2023-01-31T04:22:59.987Z,2.80
2023-01-31T04:25:02.049Z,2.70
2023-01-31T04:27:03.825Z,2.70
2023-01-31T04:29:05.578Z,2.60
2023-01-31T04:31:07.527Z,2.60
2023-01-31T04:33:09.551Z,2.50
2023-01-31T04:35:11.498Z,2.40
2023-01-31T04:37:13.188Z,2.30
2023-01-31T04:39:15.848Z,2.30
2023-01-31T04:41:17.637Z,2.20
2023-01-31T04:43:19.308Z,2.10
2023-01-31T04:45:21.403Z,2.10
2023-01-31T04:47:23.262Z,2.00
2023-01-31T04:49:24.919Z,1.90
2023-01-31T04:51:26.621Z,2.00
2023-01-31T04:53:28.917Z,2.10
2023-01-31T04:55:30.691Z,2.30
2023-01-31T04:57:32.759Z,2.30
2023-01-31T04:59:34.663Z,2.20
2023-01-31T05:01:36.410Z,2.30
2023-01-31T05:03:38.154Z,2.20
2023-01-31T05:05:40.227Z,2.20
2023-01-31T05:07:43.667Z,2.20
2023-01-31T05:09:45.412Z,2.10
2023-01-31T05:11:47.411Z,2.10
2023-01-31T05:13:49.626Z,2.10
2023-01-31T05:15:51.428Z,2.00
2023-01-31T05:18:02.691Z,1.90
2023-01-31T05:20:05.447Z,1.90
2023-01-31T05:22:10.021Z,2.10
2023-01-31T05:24:11.800Z,2.10
2023-01-31T05:26:13.508Z,2.10
2023-01-31T05:28:15.660Z,2.20
2023-01-31T05:30:17.629Z,2.30
2023-01-31T05:32:19.828Z,2.30
2023-01-31T05:34:22.471Z,2.30
2023-01-31T05:36:24.135Z,2.30
2023-01-31T05:38:25.931Z,2.50
2023-01-31T05:40:27.743Z,2.50
2023-01-31T05:42:29.570Z,2.60
2023-01-31T05:44:32.679Z,2.60
2023-01-31T05:46:34.407Z,2.60
2023-01-31T05:48:36.917Z,2.70
2023-01-31T05:50:40.218Z,2.90
2023-01-31T05:52:41.998Z,2.90
2023-01-31T05:54:43.712Z,2.80
2023-01-31T05:56:45.442Z,2.80
2023-01-31T05:58:50.429Z,2.70
2023-01-31T06:00:56.481Z,2.70
2023-01-31T06:02:59.704Z,2.80
2023-01-31T06:05:01.863Z,2.70
2023-01-31T06:07:04.049Z,2.60
2023-01-31T06:09:05.798Z,2.50
2023-01-31T06:11:08.148Z,2.50
2023-01-31T06:13:09.844Z,2.50
2023-01-31T06:15:11.959Z,2.60
2023-01-31T06:17:13.671Z,2.60
2023-01-31T06:19:15.720Z,2.50
2023-01-31T06:21:17.762Z,2.40
2023-01-31T06:23:20.159Z,2.30
2023-01-31T06:25:22.314Z,2.10
2023-01-31T06:27:24.224Z,2.10
2023-01-31T06:29:25.966Z,1.90
2023-01-31T06:31:27.794Z,1.90
2023-01-31T06:33:43.608Z,1.90
2023-01-31T06:35:48.396Z,1.90
2023-01-31T06:37:50.118Z,1.80
2023-01-31T06:39:51.783Z,1.80
2023-01-31T06:41:56.548Z,2.10
2023-01-31T06:43:58.336Z,2.10
2023-01-31T06:46:00.158Z,2.10
2023-01-31T06:48:02.190Z,2.00
2023-01-31T06:50:04.655Z,2.00
2023-01-31T06:52:06.418Z,1.90
2023-01-31T06:54:08.148Z,1.80
2023-01-31T06:56:10.062Z,1.80
2023-01-31T06:58:11.743Z,1.80
2023-01-31T07:00:14.026Z,1.80
2023-01-31T07:02:16.717Z,1.80
2023-01-31T07:04:18.667Z,1.70
2023-01-31T07:06:21.590Z,1.70
2023-01-31T07:08:23.418Z,1.80
2023-01-31T07:10:25.176Z,1.80
2023-01-31T07:12:27.550Z,1.80
2023-01-31T07:14:29.406Z,1.70
2023-01-31T07:16:31.664Z,1.60
2023-01-31T07:18:33.408Z,1.60
2023-01-31T07:20:35.115Z,1.50
2023-01-31T07:22:37.072Z,1.50
2023-01-31T07:24:38.738Z,1.40
2023-01-31T07:26:40.496Z,1.40
2023-01-31T07:28:42.317Z,1.50
2023-01-31T07:30:46.102Z,1.40
2023-01-31T07:32:47.861Z,1.30
2023-01-31T07:34:49.921Z,1.30
2023-01-31T07:36:52.058Z,1.40
2023-01-31T07:38:56.170Z,1.60
2023-01-31T07:41:03.340Z,1.70
2023-01-31T07:43:05.194Z,1.80
2023-01-31T07:45:33.679Z,1.90
2023-01-31T07:47:30.849Z,2.00
2023-01-31T07:49:33.120Z,2.00
2023-01-31T07:51:36.032Z,1.90
2023-01-31T07:53:42.120Z,2.00
2023-01-31T07:55:47.659Z,1.90
2023-01-31T07:57:49.595Z,2.00
2023-01-31T07:59:51.370Z,1.90
2023-01-31T08:02:16.024Z,1.90
2023-01-31T08:04:22.069Z,1.90
2023-01-31T08:06:24.295Z,1.80
2023-01-31T08:08:26.169Z,1.90
2023-01-31T08:10:30.745Z,1.90
2023-01-31T08:12:33.073Z,1.90
2023-01-31T08:14:34.961Z,1.90
2023-01-31T08:16:36.985Z,1.90
2023-01-31T08:18:39.668Z,1.90
2023-01-31T08:20:41.410Z,2.00
2023-01-31T08:22:43.158Z,2.10
2023-01-31T08:24:44.855Z,2.10
2023-01-31T08:26:46.819Z,2.10
2023-01-31T08:28:50.342Z,2.20
2023-01-31T08:31:07.510Z,2.30
2023-01-31T08:33:11.673Z,2.50
2023-01-31T08:35:13.493Z,2.70
2023-01-31T08:37:16.753Z,2.80
2023-01-31T08:39:19.957Z,3.00
2023-01-31T08:41:23.896Z,3.00
2023-01-31T08:43:25.551Z,3.10
2023-01-31T08:45:29.077Z,3.20
2023-01-31T08:47:31.427Z,3.40
2023-01-31T08:49:36.355Z,3.50
2023-01-31T08:51:38.165Z,3.60
2023-01-31T08:53:44.573Z,3.70
2023-01-31T08:55:46.264Z,3.70
2023-01-31T08:57:58.430Z,3.80
2023-01-31T09:00:01.777Z,3.80
2023-01-31T09:02:03.862Z,3.80
2023-01-31T09:04:05.669Z,3.80
2023-01-31T09:06:11.460Z,3.90
2023-01-31T09:08:13.208Z,3.90
2023-01-31T09:10:15.156Z,3.90
2023-01-31T09:12:16.860Z,4.00
2023-01-31T09:14:18.582Z,4.00
2023-01-31T09:16:21.150Z,4.10
2023-01-31T09:18:22.934Z,4.20
2023-01-31T09:20:24.661Z,4.30
2023-01-31T09:22:26.334Z,4.20
2023-01-31T09:24:28.538Z,4.10
2023-01-31T09:26:31.237Z,4.30
2023-01-31T09:28:33.602Z,4.50
2023-01-31T09:30:35.325Z,4.60
2023-01-31T09:32:38.717Z,4.60
2023-01-31T09:34:40.503Z,4.80
2023-01-31T09:36:42.231Z,4.80
2023-01-31T09:38:44.796Z,4.80
2023-01-31T09:40:46.752Z,4.90
2023-01-31T09:42:49.664Z,5.00
2023-01-31T09:45:04.363Z,5.00
2023-01-31T09:47:14.506Z,5.00
2023-01-31T09:49:25.238Z,5.10
2023-01-31T09:51:27.267Z,5.10
2023-01-31T09:53:32.857Z,5.20
2023-01-31T09:55:44.383Z,5.20
2023-01-31T09:58:19.743Z,5.40
2023-01-31T10:00:30.605Z,5.60
2023-01-31T10:02:51.673Z,5.70
2023-01-31T10:05:05.513Z,5.50
2023-01-31T10:07:20.219Z,5.50
2023-01-31T10:09:35.969Z,5.20
2023-01-31T10:11:56.724Z,5.20
2023-01-31T10:14:20.311Z,5.30
2023-01-31T10:16:28.494Z,5.40
2023-01-31T10:18:38.134Z,5.60
2023-01-31T10:20:43.820Z,5.40
2023-01-31T10:23:00.567Z,5.40
2023-01-31T10:25:27.065Z,5.40
2023-01-31T10:27:55.761Z,5.40
2023-01-31T10:29:59.776Z,5.50
2023-01-31T10:32:06.581Z,5.50
2023-01-31T10:34:41.138Z,5.60
2023-01-31T10:37:11.832Z,5.70
2023-01-31T10:39:32.564Z,5.50
2023-01-31T10:41:57.963Z,5.40
2023-01-31T10:44:24.070Z,5.30
2023-01-31T10:46:26.272Z,5.60
2023-01-31T10:48:29.356Z,5.90
2023-01-31T10:50:39.461Z,5.90
2023-01-31T10:52:41.167Z,6.10
2023-01-31T10:54:54.579Z,6.30
2023-01-31T10:56:58.075Z,6.00
2023-01-31T10:59:02.499Z,6.00
2023-01-31T11:01:12.056Z,5.80
2023-01-31T11:03:15.094Z,5.90
2023-01-31T11:05:20.202Z,6.00
2023-01-31T11:07:22.501Z,5.90
2023-01-31T11:09:25.582Z,5.70
2023-01-31T11:11:29.227Z,5.80
2023-01-31T11:13:30.899Z,5.70
2023-01-31T11:15:42.910Z,5.50
2023-01-31T11:17:46.254Z,5.60
2023-01-31T11:19:51.574Z,5.60
2023-01-31T11:21:54.413Z,5.70
2023-01-31T11:24:05.995Z,5.70
2023-01-31T11:26:07.986Z,5.70
2023-01-31T11:28:41.474Z,5.80
2023-01-31T11:30:50.143Z,5.80
2023-01-31T11:32:52.372Z,5.70
2023-01-31T11:35:03.528Z,5.60
2023-01-31T11:37:17.659Z,5.60
2023-01-31T11:39:32.017Z,5.70
2023-01-31T11:41:35.648Z,5.70
2023-01-31T11:43:37.357Z,5.80
2023-01-31T11:45:44.217Z,5.80
2023-01-31T11:47:47.564Z,5.80
2023-01-31T11:49:50.512Z,6.00
2023-01-31T11:51:52.679Z,6.20
2023-01-31T11:53:54.843Z,6.20
2023-01-31T11:56:00.641Z,6.20
2023-01-31T11:58:06.049Z,6.00
2023-01-31T12:00:28.746Z,6.00
2023-01-31T12:02:41.545Z,6.30
2023-01-31T12:04:43.581Z,6.00
2023-01-31T12:07:06.405Z,5.90
2023-01-31T12:09:24.088Z,5.90
2023-01-31T12:11:36.396Z,5.90
2023-01-31T12:13:49.745Z,6.00
2023-01-31T12:15:56.094Z,5.90
2023-01-31T12:18:01.300Z,5.90
2023-01-31T12:20:26.250Z,5.80
2023-01-31T12:22:45.697Z,5.80
2023-01-31T12:25:09.485Z,5.90
2023-01-31T12:27:49.396Z,5.90
2023-01-31T12:30:27.262Z,6.00
2023-01-31T12:32:47.819Z,6.10
2023-01-31T12:35:36.144Z,6.30
2023-01-31T12:37:56.273Z,6.30
2023-01-31T12:40:24.580Z,6.30
2023-01-31T12:42:40.097Z,6.40
2023-01-31T12:45:07.386Z,6.70
2023-01-31T12:47:36.122Z,6.90
2023-01-31T12:50:24.864Z,6.80
2023-01-31T12:52:39.740Z,6.70
2023-01-31T12:55:02.635Z,6.50
2023-01-31T12:57:37.078Z,6.60
2023-01-31T12:59:53.571Z,6.50
2023-01-31T13:02:45.677Z,6.20
2023-01-31T13:04:57.213Z,6.20
2023-01-31T13:07:06.417Z,6.20
2023-01-31T13:09:33.744Z,6.20
2023-01-31T13:11:40.810Z,6.00
2023-01-31T13:13:49.100Z,5.90
2023-01-31T13:15:55.705Z,5.80
2023-01-31T13:18:03.449Z,5.80
2023-01-31T13:20:33.386Z,5.90
2023-01-31T13:22:42.017Z,5.70
2023-01-31T13:24:48.401Z,5.90
2023-01-31T13:27:15.121Z,5.90
2023-01-31T13:29:26.647Z,5.80
2023-01-31T13:31:39.500Z,5.80
2023-01-31T13:33:52.620Z,5.70
2023-01-31T13:36:23.714Z,5.70
2023-01-31T13:38:30.351Z,5.80
2023-01-31T13:40:47.729Z,5.70
2023-01-31T13:42:50.419Z,5.70
2023-01-31T13:44:53.055Z,5.70
2023-01-31T13:47:13.276Z,5.60
2023-01-31T13:49:33.362Z,5.60
2023-01-31T13:51:41.398Z,5.60
2023-01-31T13:53:49.102Z,5.50
2023-01-31T13:55:52.277Z,5.50
2023-01-31T13:58:24.562Z,5.50
2023-01-31T14:00:39.170Z,5.40
2023-01-31T14:03:01.012Z,5.40
2023-01-31T14:05:40.944Z,5.40
2023-01-31T14:07:42.659Z,5.40
2023-01-31T14:09:50.455Z,5.40
2023-01-31T14:11:52.667Z,5.40
2023-01-31T14:14:09.630Z,5.50
2023-01-31T14:16:38.432Z,5.50
2023-01-31T14:18:41.500Z,5.50
2023-01-31T14:20:43.227Z,5.50
2023-01-31T14:23:23.726Z,5.40
2023-01-31T14:25:42.144Z,5.30
2023-01-31T14:27:52.792Z,5.30
2023-01-31T14:30:06.989Z,5.30
2023-01-31T14:32:25.969Z,5.40
2023-01-31T14:34:30.671Z,5.40
2023-01-31T14:36:56.821Z,5.40
2023-01-31T14:39:09.427Z,5.40
2023-01-31T14:41:29.965Z,5.40
2023-01-31T14:43:40.949Z,5.40
2023-01-31T14:46:13.440Z,5.30
2023-01-31T14:48:38.860Z,5.30
2023-01-31T14:50:47.031Z,5.30
2023-01-31T14:53:14.500Z,5.30
2023-01-31T14:55:32.494Z,5.20
2023-01-31T14:57:47.617Z,5.20
2023-01-31T14:59:57.736Z,5.30
2023-01-31T15:02:00.506Z,5.30
2023-01-31T15:04:04.120Z,5.30
2023-01-31T15:06:11.496Z,5.30
2023-01-31T15:08:16.161Z,5.30
2023-01-31T15:10:55.514Z,5.30
2023-01-31T15:13:01.586Z,5.30
2023-01-31T15:15:05.507Z,5.30
2023-01-31T15:17:35.505Z,5.30
2023-01-31T15:20:21.602Z,5.30
2023-01-31T15:22:25.611Z,5.30
2023-01-31T15:24:37.912Z,5.30
2023-01-31T15:26:41.202Z,5.40
2023-01-31T15:28:44.950Z,5.30
2023-01-31T15:30:48.609Z,5.30
2023-01-31T15:32:53.345Z,5.30
2023-01-31T15:35:21.881Z,5.30
2023-01-31T15:37:30.363Z,5.30
2023-01-31T15:39:41.678Z,5.40
2023-01-31T15:41:44.690Z,5.40
2023-01-31T15:43:47.226Z,5.40
2023-01-31T15:45:52.227Z,5.30
2023-01-31T15:48:14.035Z,5.30
2023-01-31T15:50:18.339Z,5.30
2023-01-31T15:52:23.197Z,5.40
2023-01-31T15:54:24.888Z,5.30
2023-01-31T15:56:28.870Z,5.30
2023-01-31T15:58:32.203Z,5.30
2023-01-31T16:00:38.472Z,5.30
2023-01-31T16:02:41.171Z,5.30
2023-01-31T16:04:42.923Z,5.30
2023-01-31T16:06:46.986Z,5.30
2023-01-31T16:09:02.962Z,5.30
2023-01-31T16:11:09.867Z,5.20
2023-01-31T16:13:12.205Z,5.20
2023-01-31T16:15:30.999Z,5.30
2023-01-31T16:17:32.960Z,5.30
2023-01-31T16:19:38.187Z,5.30
2023-01-31T16:21:43.071Z,5.20
2023-01-31T16:23:45.581Z,5.20
2023-01-31T16:25:50.418Z,5.20
2023-01-31T16:27:52.485Z,5.30
2023-01-31T16:29:58.951Z,5.20
2023-01-31T16:32:01.088Z,5.20
2023-01-31T16:34:07.054Z,5.20
2023-01-31T16:36:17.399Z,5.20
2023-01-31T16:38:26.728Z,5.20
2023-01-31T16:40:35.464Z,5.20
2023-01-31T16:42:39.112Z,5.20
2023-01-31T16:44:44.209Z,5.20
2023-01-31T16:46:47.805Z,5.20
2023-01-31T16:49:28.821Z,5.20
2023-01-31T16:51:31.210Z,5.20
2023-01-31T16:53:34.865Z,5.20
2023-01-31T16:55:36.610Z,5.20
2023-01-31T16:57:38.959Z,5.20
2023-01-31T16:59:45.252Z,5.20
2023-01-31T17:02:01.312Z,5.20
2023-01-31T17:04:11.773Z,5.30
2023-01-31T17:06:21.569Z,5.20
2023-01-31T17:08:25.179Z,5.20
2023-01-31T17:10:32.875Z,5.20
2023-01-31T17:12:38.452Z,5.10
2023-01-31T17:14:40.245Z,5.10
2023-01-31T17:16:41.970Z,5.10
2023-01-31T17:18:43.711Z,5.10
2023-01-31T17:20:49.062Z,5.10
2023-01-31T17:23:00.753Z,5.10
2023-01-31T17:25:19.713Z,5.10
2023-01-31T17:27:22.605Z,5.10
2023-01-31T17:29:25.953Z,5.10
2023-01-31T17:31:29.458Z,5.10
2023-01-31T17:33:31.242Z,5.10
2023-01-31T17:35:36.757Z,5.20
2023-01-31T17:37:38.544Z,5.10
2023-01-31T17:39:40.401Z,5.10
2023-01-31T17:41:42.192Z,5.10
2023-01-31T17:43:44.368Z,5.10
2023-01-31T17:45:46.427Z,5.00
2023-01-31T17:47:57.057Z,5.00
2023-01-31T17:50:00.213Z,5.00
2023-01-31T17:52:02.265Z,5.00
2023-01-31T17:54:04.255Z,5.00
2023-01-31T17:56:06.451Z,5.00
2023-01-31T17:58:13.483Z,5.00
2023-01-31T18:00:17.204Z,5.00
2023-01-31T18:02:18.986Z,5.00
2023-01-31T18:04:20.911Z,5.00
2023-01-31T18:06:22.672Z,5.00
2023-01-31T18:08:24.390Z,5.00
2023-01-31T18:10:26.167Z,5.00
2023-01-31T18:12:27.864Z,5.00
2023-01-31T18:14:29.595Z,5.00
2023-01-31T18:16:31.380Z,5.00
2023-01-31T18:18:33.167Z,5.00
2023-01-31T18:20:38.904Z,5.00
2023-01-31T18:22:40.711Z,5.00
2023-01-31T18:24:46.626Z,5.00
2023-01-31T18:26:49.180Z,5.00
2023-01-31T18:28:51.364Z,5.00
2023-01-31T18:30:53.256Z,5.00
2023-01-31T18:32:55.101Z,5.00
2023-01-31T18:34:56.901Z,5.00
2023-01-31T18:36:59.025Z,4.90
2023-01-31T18:39:00.905Z,4.90
2023-01-31T18:41:07.002Z,5.00
2023-01-31T18:43:08.819Z,5.00
2023-01-31T18:45:10.887Z,5.00
2023-01-31T18:47:14.774Z,5.00
2023-01-31T18:49:18.492Z,5.00
2023-01-31T18:51:20.285Z,5.00
2023-01-31T18:53:22.043Z,5.00
2023-01-31T18:55:24.006Z,5.00
2023-01-31T18:57:25.734Z,5.00
2023-01-31T18:59:27.467Z,5.00
2023-01-31T19:01:29.170Z,5.00
2023-01-31T19:03:30.881Z,5.00
2023-01-31T19:05:32.626Z,5.00
2023-01-31T19:07:34.800Z,5.00
2023-01-31T19:09:36.898Z,5.00
2023-01-31T19:11:43.363Z,5.00
2023-01-31T19:13:45.600Z,5.10
2023-01-31T19:15:47.420Z,5.20
2023-01-31T19:17:49.170Z,5.10
2023-01-31T19:19:50.861Z,5.10
2023-01-31T19:21:53.042Z,5.10
2023-01-31T19:23:56.983Z,5.10
2023-01-31T19:26:01.919Z,5.10
2023-01-31T19:28:03.811Z,5.20
2023-01-31T19:30:06.257Z,5.20
2023-01-31T19:32:07.928Z,5.20
2023-01-31T19:34:09.903Z,5.20
2023-01-31T19:36:14.452Z,5.20
2023-01-31T19:38:16.308Z,5.10
2023-01-31T19:40:18.234Z,5.10
2023-01-31T19:42:21.524Z,5.10
2023-01-31T19:44:23.213Z,5.10
2023-01-31T19:46:28.421Z,5.10
2023-01-31T19:48:30.377Z,5.20
2023-01-31T19:50:32.098Z,5.20
2023-01-31T19:52:35.195Z,5.20
2023-01-31T19:54:38.512Z,5.20
2023-01-31T19:56:40.429Z,5.10
2023-01-31T19:58:42.759Z,5.10
2023-01-31T20:00:44.743Z,5.10
2023-01-31T20:02:46.499Z,5.10
2023-01-31T20:04:48.265Z,5.10
2023-01-31T20:06:51.130Z,5.10
2023-01-31T20:08:54.679Z,5.10
2023-01-31T20:10:57.028Z,5.10
2023-01-31T20:13:02.340Z,5.10
2023-01-31T20:15:06.264Z,5.10
2023-01-31T20:17:07.931Z,5.10
2023-01-31T20:19:09.684Z,5.00
2023-01-31T20:21:16.905Z,5.00
2023-01-31T20:23:19.253Z,5.00
2023-01-31T20:25:21.096Z,4.90
2023-01-31T20:27:26.622Z,4.90
2023-01-31T20:29:28.444Z,4.90
2023-01-31T20:31:30.516Z,4.90
2023-01-31T20:33:32.893Z,4.90
2023-01-31T20:35:34.590Z,4.90
2023-01-31T20:37:36.418Z,4.90
2023-01-31T20:39:38.330Z,4.90
2023-01-31T20:41:40.071Z,4.90
2023-01-31T20:43:42.330Z,5.00
2023-01-31T20:45:44.339Z,5.00
2023-01-31T20:47:46.084Z,5.00
2023-01-31T20:49:47.773Z,5.00
2023-01-31T20:51:49.661Z,5.10
2023-01-31T20:53:51.575Z,5.00
2023-01-31T20:56:02.400Z,5.00
2023-01-31T20:58:04.066Z,5.00
2023-01-31T21:00:06.888Z,5.00
2023-01-31T21:02:10.205Z,5.00
2023-01-31T21:04:12.719Z,5.00
2023-01-31T21:06:14.418Z,5.00
2023-01-31T21:08:17.024Z,5.00
2023-01-31T21:10:19.007Z,5.00
2023-01-31T21:12:20.893Z,5.00
2023-01-31T21:14:22.715Z,5.10
2023-01-31T21:16:24.540Z,5.00
2023-01-31T21:18:27.768Z,5.00
2023-01-31T21:20:29.431Z,5.00
2023-01-31T21:22:31.383Z,5.00
2023-01-31T21:24:33.037Z,5.00
2023-01-31T21:26:35.127Z,5.00
2023-01-31T21:28:37.736Z,4.90
2023-01-31T21:30:39.527Z,4.90
2023-01-31T21:32:41.373Z,4.80
2023-01-31T21:34:43.144Z,4.70
2023-01-31T21:36:45.862Z,4.70
2023-01-31T21:38:47.745Z,4.70
2023-01-31T21:40:49.501Z,4.80
2023-01-31T21:42:52.609Z,4.80
2023-01-31T21:44:54.386Z,4.80
2023-01-31T21:46:56.246Z,4.80
2023-01-31T21:49:00.065Z,4.80
2023-01-31T21:51:07.434Z,4.80
2023-01-31T21:53:09.286Z,4.80
2023-01-31T21:55:10.951Z,4.80
2023-01-31T21:57:12.760Z,4.80
2023-01-31T21:59:14.606Z,4.80
2023-01-31T22:01:19.851Z,5.20
2023-01-31T22:03:21.663Z,5.30
2023-01-31T22:05:23.380Z,5.30
2023-01-31T22:07:25.134Z,5.30
2023-01-31T22:09:27.139Z,5.20
2023-01-31T22:11:32.963Z,5.20
2023-01-31T22:13:35.728Z,5.10
2023-01-31T22:15:37.491Z,5.00
2023-01-31T22:17:39.496Z,5.00
2023-01-31T22:19:41.473Z,5.00
2023-01-31T22:21:43.374Z,5.10
2023-01-31T22:23:47.748Z,5.10
2023-01-31T22:25:49.401Z,5.10
2023-01-31T22:27:51.808Z,5.10
2023-01-31T22:29:55.400Z,5.10
2023-01-31T22:32:00.324Z,5.10
2023-01-31T22:34:03.568Z,5.20
2023-01-31T22:36:06.772Z,5.20
2023-01-31T22:38:08.510Z,5.20
2023-01-31T22:40:11.021Z,5.20
2023-01-31T22:42:12.788Z,5.20
2023-01-31T22:44:14.703Z,5.30
2023-01-31T22:46:19.472Z,5.20
2023-01-31T22:48:23.841Z,5.30
2023-01-31T22:50:25.529Z,5.30
2023-01-31T22:52:29.496Z,5.30
2023-01-31T22:54:31.172Z,5.30
2023-01-31T22:56:34.447Z,5.30
2023-01-31T22:58:36.340Z,5.30
2023-01-31T23:00:38.532Z,5.30
2023-01-31T23:02:40.258Z,5.30
2023-01-31T23:04:41.939Z,5.20
2023-01-31T23:06:43.651Z,5.20
2023-01-31T23:08:45.558Z,5.10
2023-01-31T23:10:47.442Z,5.10
2023-01-31T23:12:49.399Z,5.10
2023-01-31T23:14:51.163Z,5.10
2023-01-31T23:17:11.677Z,5.00
2023-01-31T23:19:14.689Z,5.00
2023-01-31T23:21:18.510Z,4.90
2023-01-31T23:23:20.971Z,4.90
2023-01-31T23:25:23.672Z,4.90
2023-01-31T23:27:25.410Z,4.80
2023-01-31T23:29:27.194Z,4.80
2023-01-31T23:31:29.072Z,4.80
2023-01-31T23:33:30.960Z,4.80
2023-01-31T23:35:32.697Z,4.80
2023-01-31T23:37:34.580Z,4.80
2023-01-31T23:39:36.300Z,4.80
2023-01-31T23:41:38.072Z,4.80
2023-01-31T23:43:39.882Z,4.80
2023-01-31T23:45:42.553Z,4.80
2023-01-31T23:47:44.652Z,4.80
2023-01-31T23:49:46.518Z,4.80
2023-01-31T23:51:48.224Z,4.80
2023-01-31T23:53:49.912Z,4.80
2023-01-31T23:55:51.574Z,4.80
2023-01-31T23:57:53.361Z,4.80
2023-01-31T23:59:55.140Z,4.80
